createdAt,value
2023-06-17T00:01:31.162Z,2.87
2023-06-17T00:04:33.518Z,2.70
2023-06-17T00:07:35.887Z,3.20
2023-06-17T00:10:38.414Z,2.67
2023-06-17T00:13:40.713Z,2.83
2023-06-17T00:16:45.184Z,3.13
2023-06-17T00:19:47.511Z,2.90
2023-06-17T00:22:49.960Z,2.93
2023-06-17T00:25:52.210Z,2.90
2023-06-17T00:28:54.627Z,2.73
2023-06-17T00:31:57.736Z,3.20
2023-06-17T00:35:00.208Z,3.23
2023-06-17T00:38:02.837Z,3.13
2023-06-17T00:41:05.204Z,2.70
2023-06-17T00:44:07.646Z,2.97
2023-06-17T00:47:12.611Z,3.10
2023-06-17T00:50:16.630Z,2.73
2023-06-17T00:53:19.143Z,2.93
2023-06-17T00:56:21.472Z,3.60
2023-06-17T00:59:23.946Z,3.20
2023-06-17T01:02:27.510Z,3.03
2023-06-17T01:05:30.145Z,3.10
2023-06-17T01:08:59.349Z,3.63
2023-06-17T01:12:03.974Z,2.83
2023-06-17T01:15:06.941Z,3.50
2023-06-17T01:18:10.083Z,3.10
2023-06-17T01:21:14.003Z,3.43
2023-06-17T01:24:28.767Z,2.90
2023-06-17T01:27:34.855Z,3.50
2023-06-17T01:30:37.113Z,3.27
2023-06-17T01:33:43.314Z,3.10
2023-06-17T01:36:47.318Z,3.67
2023-06-17T01:39:52.636Z,3.07
2023-06-17T01:42:55.556Z,3.13
2023-06-17T01:45:59.634Z,2.83
2023-06-17T01:49:02.175Z,3.30
2023-06-17T01:52:05.407Z,3.30
2023-06-17T01:55:08.112Z,3.00
2023-06-17T01:58:11.680Z,3.33
2023-06-17T02:01:13.920Z,3.50
2023-06-17T02:04:16.203Z,3.67
2023-06-17T02:07:19.063Z,3.57
2023-06-17T02:10:21.526Z,4.00
2023-06-17T02:13:24.096Z,3.40
2023-06-17T02:16:26.593Z,3.77
2023-06-17T02:19:33.448Z,3.90
2023-06-17T02:22:35.910Z,3.93
2023-06-17T02:25:41.325Z,4.00
2023-06-17T02:28:44.075Z,3.97
2023-06-17T02:31:46.518Z,3.90
2023-06-17T02:34:52.171Z,3.50
2023-06-17T02:37:55.692Z,3.97
2023-06-17T02:40:59.987Z,3.47
2023-06-17T02:44:02.201Z,3.93
2023-06-17T02:47:04.726Z,3.40
2023-06-17T02:50:08.744Z,3.80
2023-06-17T02:53:11.908Z,3.27
2023-06-17T02:56:14.788Z,3.63
2023-06-17T02:59:19.531Z,3.83
2023-06-17T03:02:24.795Z,3.47
2023-06-17T03:05:28.027Z,3.53
2023-06-17T03:08:34.670Z,3.30
2023-06-17T03:11:37.531Z,3.53
2023-06-17T03:14:41.630Z,3.60
2023-06-17T03:17:49.325Z,3.20
2023-06-17T03:20:54.548Z,3.80
2023-06-17T03:23:59.768Z,3.90
2023-06-17T03:27:02.703Z,3.83
2023-06-17T03:30:07.836Z,3.80
2023-06-17T03:33:10.833Z,4.27
2023-06-17T03:36:13.650Z,4.23
2023-06-17T03:39:15.957Z,3.93
2023-06-17T03:42:18.176Z,4.17
2023-06-17T03:45:20.590Z,4.13
2023-06-17T03:48:24.734Z,5.10
2023-06-17T03:51:26.899Z,5.47
2023-06-17T03:54:30.075Z,4.30
2023-06-17T03:57:32.257Z,4.63
2023-06-17T04:00:34.502Z,4.20
2023-06-17T04:03:36.821Z,4.57
2023-06-17T04:06:39.118Z,3.90
2023-06-17T04:09:48.084Z,4.67
2023-06-17T04:13:00.246Z,4.80
2023-06-17T04:16:03.700Z,4.57
2023-06-17T04:19:05.927Z,4.60
2023-06-17T04:22:08.193Z,4.47
2023-06-17T04:25:12.794Z,4.87
2023-06-17T04:28:19.502Z,4.43
2023-06-17T04:31:21.711Z,5.10
2023-06-17T04:34:24.700Z,4.93
2023-06-17T04:37:30.214Z,4.53
2023-06-17T04:40:33.536Z,5.40
2023-06-17T04:43:39.870Z,4.60
2023-06-17T04:46:46.758Z,4.47
2023-06-17T04:49:52.978Z,4.43
2023-06-17T04:52:55.901Z,4.90
2023-06-17T04:56:01.834Z,4.97
2023-06-17T04:59:05.614Z,4.53
2023-06-17T05:02:08.430Z,4.90
2023-06-17T05:05:10.782Z,4.30
2023-06-17T05:08:13.315Z,4.30
2023-06-17T05:11:16.486Z,4.50
2023-06-17T05:14:20.360Z,3.97
2023-06-17T05:17:24.134Z,4.90
2023-06-17T05:20:26.526Z,4.33
2023-06-17T05:23:29.003Z,3.73
2023-06-17T05:26:31.884Z,4.17
2023-06-17T05:29:34.104Z,3.37
2023-06-17T05:32:36.726Z,3.70
2023-06-17T05:35:39.729Z,3.83
2023-06-17T05:38:41.960Z,4.00
2023-06-17T05:41:44.189Z,4.60
2023-06-17T05:44:46.416Z,3.90
2023-06-17T05:47:48.859Z,4.20
2023-06-17T05:50:51.898Z,4.40
2023-06-17T05:53:54.852Z,3.73
2023-06-17T05:56:57.048Z,3.70
2023-06-17T05:59:59.245Z,3.70
2023-06-17T06:03:01.453Z,3.60
2023-06-17T06:06:03.721Z,3.33
2023-06-17T06:09:05.925Z,3.40
2023-06-17T06:12:08.544Z,3.20
2023-06-17T06:15:11.785Z,3.17
2023-06-17T06:18:15.259Z,3.10
2023-06-17T06:21:17.416Z,3.47
2023-06-17T06:24:19.756Z,3.40
2023-06-17T06:27:22.567Z,3.20
2023-06-17T06:30:25.405Z,3.47
2023-06-17T06:33:31.615Z,3.23
2023-06-17T06:36:34.017Z,3.20
2023-06-17T06:39:36.751Z,2.77
2023-06-17T06:42:39.233Z,3.13
2023-06-17T06:45:56.235Z,2.90
2023-06-17T06:49:00.701Z,3.00
2023-06-17T06:52:03.975Z,3.13
2023-06-17T06:55:06.922Z,2.77
2023-06-17T06:58:10.709Z,3.60
2023-06-17T07:01:13.003Z,3.23
2023-06-17T07:04:16.194Z,2.67
2023-06-17T07:07:18.823Z,3.10
2023-06-17T07:10:22.532Z,3.40
2023-06-17T07:13:25.355Z,3.30
2023-06-17T07:16:28.652Z,3.07
2023-06-17T07:19:31.706Z,3.30
2023-06-17T07:22:34.051Z,3.47
2023-06-17T07:25:38.298Z,3.30
2023-06-17T07:28:40.582Z,3.20
2023-06-17T07:31:42.744Z,3.17
2023-06-17T07:34:44.948Z,3.33
2023-06-17T07:37:47.236Z,3.07
2023-06-17T07:40:49.910Z,3.30
2023-06-17T07:43:52.089Z,3.47
2023-06-17T07:46:54.354Z,3.00
2023-06-17T07:49:56.556Z,3.40
2023-06-17T07:52:58.804Z,3.20
2023-06-17T07:56:01.346Z,3.23
2023-06-17T07:59:03.626Z,3.50
2023-06-17T08:02:08.795Z,3.50
2023-06-17T08:05:12.200Z,3.20
2023-06-17T08:08:14.446Z,3.23
2023-06-17T08:11:16.838Z,3.23
2023-06-17T08:14:19.634Z,3.47
2023-06-17T08:17:22.344Z,3.67
2023-06-17T08:20:24.724Z,3.70
2023-06-17T08:23:27.215Z,3.43
2023-06-17T08:26:29.620Z,3.13
2023-06-17T08:29:32.512Z,3.47
2023-06-17T08:32:34.900Z,3.60
2023-06-17T08:35:37.242Z,3.10
2023-06-17T08:38:39.349Z,3.07
2023-06-17T08:41:43.889Z,3.27
2023-06-17T08:44:48.004Z,3.60
2023-06-17T08:47:50.343Z,3.30
2023-06-17T08:50:54.757Z,3.20
2023-06-17T08:53:58.229Z,2.93
2023-06-17T08:57:01.799Z,3.37
2023-06-17T09:00:05.623Z,3.53
2023-06-17T09:03:10.356Z,3.50
2023-06-17T09:06:27.575Z,3.37
2023-06-17T09:09:30.118Z,3.67
2023-06-17T09:12:39.378Z,3.33
2023-06-17T09:15:41.974Z,7.97
2023-06-17T09:18:44.258Z,4.20
2023-06-17T09:21:49.768Z,4.13
2023-06-17T09:24:59.397Z,3.50
2023-06-17T09:31:08.024Z,5.20
2023-06-17T09:34:11.944Z,4.10
2023-06-17T09:37:14.312Z,3.70
2023-06-17T09:40:17.110Z,4.10
2023-06-17T09:46:36.708Z,4.50
2023-06-17T09:49:39.869Z,4.10
2023-06-17T09:52:42.652Z,3.80
2023-06-17T09:55:45.109Z,3.60
2023-06-17T09:58:48.860Z,3.80
2023-06-17T10:01:51.794Z,3.80
2023-06-17T10:04:54.956Z,3.37
2023-06-17T10:07:59.042Z,3.17
2023-06-17T10:11:01.925Z,3.60
2023-06-17T10:14:09.260Z,3.17
2023-06-17T10:17:12.759Z,2.93
2023-06-17T10:20:17.431Z,3.00
2023-06-17T10:23:22.223Z,3.20
2023-06-17T10:26:25.254Z,3.67
2023-06-17T10:29:27.514Z,3.00
2023-06-17T10:32:29.973Z,2.97
2023-06-17T10:35:41.844Z,3.37
2023-06-17T10:38:58.357Z,3.27
2023-06-17T10:42:01.405Z,3.30
2023-06-17T10:45:13.823Z,3.00
2023-06-17T10:48:20.844Z,3.33
2023-06-17T10:51:36.097Z,3.13
2023-06-17T10:54:53.845Z,3.30
2023-06-17T10:57:59.155Z,3.17
2023-06-17T11:01:03.517Z,3.20
2023-06-17T11:04:09.218Z,3.37
2023-06-17T11:07:15.427Z,3.20
2023-06-17T11:10:18.699Z,3.70
2023-06-17T11:13:25.182Z,3.27
2023-06-17T11:16:27.844Z,3.67
2023-06-17T11:19:30.099Z,3.77
2023-06-17T11:22:32.358Z,3.10
2023-06-17T11:25:44.238Z,3.10
2023-06-17T11:28:51.249Z,3.00
2023-06-17T11:31:55.105Z,3.17
2023-06-17T11:34:57.925Z,3.40
2023-06-17T11:38:01.318Z,3.33
2023-06-17T11:41:03.515Z,3.30
2023-06-17T11:44:06.903Z,2.90
2023-06-17T11:47:10.926Z,3.23
2023-06-17T11:50:13.382Z,2.93
2023-06-17T11:53:15.456Z,3.20
2023-06-17T11:56:23.536Z,3.30
2023-06-17T11:59:26.084Z,2.97
2023-06-17T12:02:31.873Z,3.10
2023-06-17T12:05:34.834Z,3.27
2023-06-17T12:08:38.747Z,2.93
2023-06-17T12:11:41.510Z,3.10
2023-06-17T12:14:43.777Z,3.00
2023-06-17T12:17:50.061Z,3.57
2023-06-17T12:20:52.426Z,2.80
2023-06-17T12:23:57.613Z,3.60
2023-06-17T12:27:00.621Z,2.77
2023-06-17T12:30:05.258Z,3.30
2023-06-17T12:33:07.556Z,3.67
2023-06-17T12:36:09.761Z,3.77
2023-06-17T12:39:12.126Z,3.97
2023-06-17T12:42:14.273Z,3.63
2023-06-17T12:45:16.614Z,3.00
2023-06-17T12:48:19.042Z,2.33
2023-06-17T12:51:21.361Z,2.33
2023-06-17T12:54:24.473Z,2.27
2023-06-17T12:57:28.506Z,2.50
2023-06-17T13:00:30.687Z,2.20
2023-06-17T13:03:34.461Z,4.53
2023-06-17T13:06:39.683Z,1.80
2023-06-17T13:09:42.597Z,1.60
2023-06-17T13:12:46.673Z,1.70
2023-06-17T13:15:50.574Z,1.50
2023-06-17T13:18:56.755Z,1.77
2023-06-17T13:21:59.563Z,1.53
2023-06-17T13:25:02.030Z,1.90
2023-06-17T13:28:04.210Z,1.60
2023-06-17T13:31:06.691Z,1.77
2023-06-17T13:34:09.879Z,1.83
2023-06-17T13:37:12.299Z,2.37
2023-06-17T13:40:14.553Z,2.00
2023-06-17T13:43:17.473Z,2.00
2023-06-17T13:46:20.003Z,2.00
2023-06-17T13:49:22.841Z,2.37
2023-06-17T13:52:25.199Z,2.00
2023-06-17T13:55:27.495Z,2.30
2023-06-17T13:58:29.583Z,2.10
2023-06-17T14:01:31.758Z,2.40
2023-06-17T14:04:34.001Z,2.07
2023-06-17T14:07:36.360Z,2.10
2023-06-17T14:10:38.570Z,2.10
2023-06-17T14:13:41.691Z,2.27
2023-06-17T14:16:45.395Z,2.27
2023-06-17T14:19:47.546Z,2.13
2023-06-17T14:22:50.597Z,2.30
2023-06-17T14:25:52.788Z,2.43
2023-06-17T14:28:54.850Z,2.40
2023-06-17T14:31:57.155Z,2.83
2023-06-17T14:35:00.327Z,2.60
2023-06-17T14:38:02.629Z,2.60
2023-06-17T14:41:04.790Z,2.77
2023-06-17T14:44:06.995Z,2.80
2023-06-17T14:47:10.407Z,3.27
2023-06-17T14:50:13.398Z,2.50
2023-06-17T14:53:34.282Z,2.67
2023-06-17T14:56:37.035Z,2.57
2023-06-17T14:59:39.212Z,2.87
2023-06-17T15:02:52.972Z,2.80
2023-06-17T15:05:55.222Z,3.10
2023-06-17T15:09:37.735Z,3.07
2023-06-17T15:12:43.537Z,2.90
2023-06-17T15:15:46.088Z,3.40
2023-06-17T15:18:48.218Z,2.80
2023-06-17T15:21:50.557Z,2.87
2023-06-17T15:24:54.112Z,2.57
2023-06-17T15:27:56.290Z,2.80
2023-06-17T15:30:58.432Z,2.80
2023-06-17T15:34:00.934Z,2.80
2023-06-17T15:37:03.470Z,3.53
2023-06-17T15:40:09.280Z,3.23
2023-06-17T15:43:11.462Z,3.03
2023-06-17T15:46:13.620Z,3.60
2023-06-17T15:49:15.917Z,3.00
2023-06-17T15:52:18.090Z,3.00
2023-06-17T15:55:20.228Z,3.20
2023-06-17T15:58:22.791Z,3.50
2023-06-17T16:01:25.016Z,3.20
2023-06-17T16:04:35.918Z,3.23
2023-06-17T16:07:38.104Z,3.00
2023-06-17T16:10:41.643Z,3.33
2023-06-17T16:13:44.096Z,3.10
2023-06-17T16:16:46.468Z,3.30
2023-06-17T16:19:48.785Z,2.93
2023-06-17T16:22:50.937Z,3.23
2023-06-17T16:25:55.980Z,2.90
2023-06-17T16:28:58.515Z,2.30
2023-06-17T16:32:00.629Z,2.80
2023-06-17T16:35:02.840Z,2.80
2023-06-17T16:38:05.103Z,2.90
2023-06-17T16:41:07.264Z,2.70
2023-06-17T16:44:09.654Z,2.70
2023-06-17T16:47:12.451Z,2.50
2023-06-17T16:50:15.063Z,2.37
2023-06-17T16:53:19.549Z,3.13
2023-06-17T16:56:21.761Z,2.53
2023-06-17T16:59:24.297Z,2.40
2023-06-17T17:02:26.475Z,2.70
2023-06-17T17:05:28.952Z,2.57
2023-06-17T17:08:33.000Z,2.90
2023-06-17T17:11:35.631Z,2.73
2023-06-17T17:14:50.494Z,2.60
2023-06-17T17:18:06.230Z,3.00
2023-06-17T17:21:28.822Z,2.67
2023-06-17T17:24:59.981Z,2.77
2023-06-17T17:28:03.433Z,2.80
2023-06-17T17:31:05.843Z,2.70
2023-06-17T17:34:07.991Z,2.43
2023-06-17T17:37:10.454Z,2.80
2023-06-17T17:40:12.990Z,2.60
2023-06-17T17:43:15.335Z,2.53
2023-06-17T17:46:17.574Z,2.40
2023-06-17T17:49:19.734Z,2.60
2023-06-17T17:52:22.157Z,2.60
2023-06-17T17:55:24.354Z,2.63
2023-06-17T17:58:26.642Z,2.30
2023-06-17T18:01:29.374Z,2.70
2023-06-17T18:04:31.533Z,2.67
2023-06-17T18:07:33.727Z,2.50
2023-06-17T18:10:35.961Z,2.70
2023-06-17T18:13:38.292Z,2.43
2023-06-17T18:16:41.172Z,2.43
2023-06-17T18:19:44.679Z,2.67
2023-06-17T18:22:46.954Z,2.70
2023-06-17T18:25:49.146Z,2.90
2023-06-17T18:28:51.915Z,3.13
2023-06-17T18:31:54.696Z,2.90
2023-06-17T18:34:56.930Z,2.40
2023-06-17T18:38:00.990Z,2.50
2023-06-17T18:41:03.619Z,2.67
2023-06-17T18:44:05.719Z,2.40
2023-06-17T18:47:08.214Z,2.67
2023-06-17T18:50:11.180Z,2.53
2023-06-17T18:53:13.239Z,2.50
2023-06-17T18:56:15.372Z,2.43
2023-06-17T18:59:17.758Z,2.60
2023-06-17T19:02:21.570Z,2.57
2023-06-17T19:05:23.789Z,2.20
2023-06-17T19:08:26.011Z,2.20
2023-06-17T19:11:28.101Z,2.20
2023-06-17T19:14:30.251Z,1.80
2023-06-17T19:17:33.145Z,2.33
2023-06-17T19:20:35.585Z,2.53
2023-06-17T19:23:37.800Z,2.47
2023-06-17T19:26:40.021Z,2.37
2023-06-17T19:29:46.069Z,2.23
2023-06-17T19:32:49.576Z,2.47
2023-06-17T19:35:51.854Z,2.60
2023-06-17T19:38:54.215Z,2.20
2023-06-17T19:41:56.597Z,2.53
2023-06-17T19:44:58.738Z,2.60
2023-06-17T19:48:08.386Z,2.40
2023-06-17T19:51:10.936Z,3.00
2023-06-17T19:54:14.007Z,3.17
2023-06-17T19:57:16.384Z,2.93
2023-06-17T20:00:19.128Z,2.97
2023-06-17T20:03:21.807Z,2.93
2023-06-17T20:06:26.488Z,3.00
2023-06-17T20:09:29.005Z,3.23
2023-06-17T20:12:31.429Z,3.03
2023-06-17T20:15:34.466Z,2.87
2023-06-17T20:18:36.862Z,2.70
2023-06-17T20:21:39.148Z,2.83
2023-06-17T20:24:41.375Z,2.90
2023-06-17T20:27:45.581Z,3.27
2023-06-17T20:30:47.936Z,2.70
2023-06-17T20:33:50.250Z,3.27
2023-06-17T20:36:52.346Z,3.10
2023-06-17T20:39:54.694Z,2.70
2023-06-17T20:42:56.917Z,3.10
2023-06-17T20:45:59.174Z,3.20
2023-06-17T20:49:01.474Z,3.10
2023-06-17T20:52:03.815Z,3.00
2023-06-17T20:55:06.648Z,2.93
2023-06-17T20:58:08.915Z,3.20
2023-06-17T21:01:12.212Z,2.97
2023-06-17T21:04:14.459Z,2.90
2023-06-17T21:07:16.859Z,3.10
2023-06-17T21:10:19.844Z,3.00
2023-06-17T21:13:22.160Z,3.23
2023-06-17T21:16:24.448Z,3.23
2023-06-17T21:19:26.577Z,3.27
2023-06-17T21:22:28.737Z,2.90
2023-06-17T21:25:31.166Z,2.70
2023-06-17T21:28:33.685Z,3.20
2023-06-17T21:31:36.012Z,3.40
2023-06-17T21:34:38.753Z,3.20
2023-06-17T21:37:40.911Z,3.43
2023-06-17T21:40:43.078Z,3.67
2023-06-17T21:43:45.333Z,3.27
2023-06-17T21:46:49.040Z,3.13
2023-06-17T21:49:52.131Z,3.00
2023-06-17T21:52:56.196Z,2.97
2023-06-17T21:55:58.350Z,3.00
2023-06-17T21:59:00.666Z,3.23
2023-06-17T22:02:03.070Z,3.80
2023-06-17T22:05:05.701Z,3.07
2023-06-17T22:08:07.991Z,3.20
2023-06-17T22:11:10.673Z,2.80
2023-06-17T22:14:12.892Z,3.57
2023-06-17T22:17:15.032Z,3.13
2023-06-17T22:20:17.295Z,3.00
2023-06-17T22:23:19.755Z,2.90
2023-06-17T22:26:21.886Z,3.30
2023-06-17T22:29:24.094Z,3.20
2023-06-17T22:32:26.286Z,3.07
2023-06-17T22:35:28.811Z,2.80
2023-06-17T22:38:30.993Z,3.20
2023-06-17T22:41:33.122Z,3.60
2023-06-17T22:44:35.283Z,3.17
2023-06-17T22:47:37.768Z,2.80
2023-06-17T22:50:40.021Z,2.80
2023-06-17T22:53:42.117Z,3.47
2023-06-17T22:56:44.316Z,3.33
2023-06-17T22:59:47.082Z,3.37
2023-06-17T23:02:49.467Z,3.07
2023-06-17T23:05:51.763Z,3.50
2023-06-17T23:08:53.922Z,2.97
2023-06-17T23:11:56.318Z,3.77
2023-06-17T23:14:58.515Z,3.83
2023-06-17T23:18:00.726Z,4.20
2023-06-17T23:21:03.058Z,3.33
2023-06-17T23:24:05.614Z,3.80
2023-06-17T23:27:07.904Z,3.30
2023-06-17T23:30:10.992Z,3.47
2023-06-17T23:33:15.106Z,3.20
2023-06-17T23:36:17.250Z,3.27
2023-06-17T23:39:19.430Z,3.23
2023-06-17T23:42:21.548Z,3.50
2023-06-17T23:45:27.776Z,3.07
2023-06-17T23:48:31.089Z,2.97
2023-06-17T23:51:33.323Z,3.30
2023-06-17T23:54:35.932Z,3.57
2023-06-17T23:57:38.122Z,3.10
